Time;durP1;ratioP1;P1;durP2;ratioP2;P2;SDS_P1;SDS_P2;PMS_P1;PMS_P2;Temp;Humidity;BMP_temperature;BMP_pressure;BME280_temperature;BME280_humidity;BME280_pressure;Samples;Min_cycle;Max_cycle;Signal;HPM_P1;HPM_P2
2023/11/11 00:00:06;;;;;;;5.40;3.00;;;;;;;8.62;71.63;99077.55;107203;1262;59885;-36
2023/11/11 00:02:34;;;;;;;7.30;4.20;;;;;;;8.58;71.56;99073.30;107009;1257;73110;-37
2023/11/11 00:05:02;;;;;;;8.20;4.30;;;;;;;8.54;71.52;99070.58;107171;1257;67616;-36
2023/11/11 00:07:30;;;;;;;7.90;3.90;;;;;;;8.49;71.56;99069.07;107208;1263;72700;-37
2023/11/11 00:10:00;;;;;;;7.40;4.50;;;;;;;8.45;71.56;99073.39;107178;1257;61660;-37
2023/11/11 00:12:27;;;;;;;8.00;4.00;;;;;;;8.46;71.41;99070.39;107206;1257;59608;-37
2023/11/11 00:14:55;;;;;;;4.90;3.60;;;;;;;8.48;71.20;99064.50;107205;1257;73890;-37
2023/11/11 00:17:23;;;;;;;5.80;3.70;;;;;;;8.46;71.00;99064.38;107227;1257;67913;-37
2023/11/11 00:19:50;;;;;;;6.50;3.80;;;;;;;8.42;70.88;99058.89;107199;1257;72680;-37
2023/11/11 00:22:18;;;;;;;7.20;4.00;;;;;;;8.38;70.89;99052.94;107181;1257;60396;-36
2023/11/11 00:24:47;;;;;;;8.20;4.10;;;;;;;8.34;70.86;99047.90;107208;1257;60403;-37
2023/11/11 00:27:16;;;;;;;3.60;2.80;;;;;;;8.28;70.76;99041.83;107232;1257;73856;-36
2023/11/11 00:29:44;;;;;;;5.10;2.60;;;;;;;8.23;70.62;99041.16;107144;1257;66609;-37
2023/11/11 00:32:12;;;;;;;6.30;3.60;;;;;;;8.24;70.47;99036.77;107078;1257;72521;-36
2023/11/11 00:34:40;;;;;;;5.50;3.80;;;;;;;8.27;70.33;99035.09;107115;1260;60543;-37
2023/11/11 00:37:08;;;;;;;8.50;3.70;;;;;;;8.26;70.15;99033.35;107133;1257;60296;-37
2023/11/11 00:39:35;;;;;;;8.50;4.60;;;;;;;8.23;69.92;99029.27;107112;1257;73506;-37
2023/11/11 00:42:03;;;;;;;6.10;4.20;;;;;;;8.20;69.86;99022.02;107199;1263;67576;-36
2023/11/11 00:44:31;;;;;;;6.80;3.80;;;;;;;8.16;69.62;99017.85;107216;1257;71434;-36
2023/11/11 00:46:58;;;;;;;10.30;4.00;;;;;;;8.12;69.72;99015.12;107074;1262;60079;-36
2023/11/11 00:49:26;;;;;;;8.30;4.30;;;;;;;8.09;69.45;99012.05;107089;1257;60271;-36
2023/11/11 00:51:55;;;;;;;5.80;3.50;;;;;;;8.10;69.46;99004.67;107193;1262;74314;-36
2023/11/11 00:54:22;;;;;;;7.40;3.70;;;;;;;8.13;69.31;98998.64;107236;1257;65793;-37
2023/11/11 00:56:51;;;;;;;6.20;3.90;;;;;;;8.10;69.21;98994.34;107218;1257;72728;-37
2023/11/11 00:59:19;;;;;;;5.50;3.90;;;;;;;8.08;69.07;98992.05;107236;1258;61669;-36
2023/11/11 01:01:46;;;;;;;5.10;3.60;;;;;;;8.04;69.14;98989.64;107202;1256;60528;-36
2023/11/11 01:04:14;;;;;;;7.50;4.00;;;;;;;8.02;69.20;98986.75;107187;1257;73833;-36
2023/11/11 01:06:43;;;;;;;7.60;4.10;;;;;;;8.00;69.19;98986.22;106331;1257;1003767;-36
2023/11/11 01:09:13;;;;;;;6.00;3.70;;;;;;;7.97;69.20;98988.33;107131;1263;72701;-36
2023/11/11 01:11:44;;;;;;;6.70;3.40;;;;;;;7.94;69.13;98991.03;107201;1257;61704;-36
2023/11/11 01:14:11;;;;;;;4.80;3.50;;;;;;;7.96;69.10;98985.45;107194;1257;60351;-37
2023/11/11 01:16:39;;;;;;;5.90;3.50;;;;;;;7.99;69.00;98979.34;107068;1257;73869;-36
2023/11/11 01:19:06;;;;;;;7.00;3.70;;;;;;;7.97;69.08;98975.52;107111;1257;67797;-36
2023/11/11 01:21:34;;;;;;;6.70;3.70;;;;;;;7.93;69.13;98975.45;107199;1257;72706;-37
2023/11/11 01:24:02;;;;;;;4.70;3.60;;;;;;;7.90;69.23;98972.58;107197;1257;60400;-36
2023/11/11 01:26:30;;;;;;;5.40;3.80;;;;;;;7.87;69.28;98969.05;107090;1257;60498;-37
2023/11/11 01:28:58;;;;;;;7.50;4.00;;;;;;;7.83;69.34;98963.70;107042;1257;73896;-36
2023/11/11 01:31:25;;;;;;;5.30;3.80;;;;;;;7.80;69.41;98960.00;107225;1262;67946;-36
2023/11/11 01:33:53;;;;;;;4.90;3.50;;;;;;;7.83;69.35;98953.46;107195;1257;73068;-36
2023/11/11 01:36:21;;;;;;;6.60;3.80;;;;;;;7.90;69.41;98948.29;107219;1258;60456;-36
2023/11/11 01:38:49;;;;;;;6.20;4.10;;;;;;;7.90;69.23;98940.27;107219;1257;60164;-36
2023/11/11 01:41:17;;;;;;;4.50;3.70;;;;;;;7.89;69.31;98935.61;107109;1257;72654;-36
2023/11/11 01:43:45;;;;;;;7.00;3.80;;;;;;;7.88;69.31;98930.91;107080;1257;67772;-36
2023/11/11 01:46:13;;;;;;;6.90;4.20;;;;;;;7.86;69.33;98926.70;107095;1257;72699;-36
2023/11/11 01:48:42;;;;;;;5.70;4.10;;;;;;;7.82;69.50;98921.97;107026;1264;60336;-36
2023/11/11 01:51:10;;;;;;;7.10;4.10;;;;;;;7.78;69.74;98918.59;107042;1257;60374;-36
2023/11/11 01:53:38;;;;;;;7.20;4.00;;;;;;;7.82;69.73;98916.19;106936;1256;73860;-36
2023/11/11 01:56:08;;;;;;;5.10;3.60;;;;;;;7.86;69.73;98911.11;106976;1257;66606;-36
2023/11/11 01:58:38;;;;;;;5.50;4.10;;;;;;;7.84;69.72;98908.84;107074;1257;72721;-36
2023/11/11 02:01:07;;;;;;;5.60;4.10;;;;;;;7.82;69.99;98909.96;106944;1257;60489;-36
2023/11/11 02:03:35;;;;;;;5.10;4.20;;;;;;;7.81;70.12;98902.52;106966;1257;60403;-36
2023/11/11 02:06:07;;;;;;;5.20;4.00;;;;;;;7.80;70.14;98895.63;107055;1259;73921;-36
2023/11/11 02:08:35;;;;;;;6.20;4.50;;;;;;;7.78;70.23;98889.29;107071;1257;68371;-36
2023/11/11 02:11:06;;;;;;;7.00;4.20;;;;;;;7.77;70.23;98890.64;107264;1258;71456;-36
2023/11/11 02:13:37;;;;;;;5.80;3.90;;;;;;;7.81;70.17;98888.25;107048;1257;60497;-36
2023/11/11 02:16:05;;;;;;;5.50;4.10;;;;;;;7.86;70.18;98882.89;107085;1257;60295;-36
2023/11/11 02:18:33;;;;;;;5.30;3.80;;;;;;;7.89;70.19;98882.86;107262;1257;72654;-36
2023/11/11 02:21:01;;;;;;;5.40;4.30;;;;;;;7.89;70.15;98877.55;107110;1259;67550;-36
2023/11/11 02:23:35;;;;;;;9.90;4.50;;;;;;;7.90;70.22;98872.16;107090;1257;71764;-36
2023/11/11 02:26:03;;;;;;;9.30;4.70;;;;;;;7.88;70.27;98869.52;107230;1257;60168;-36
2023/11/11 02:28:31;;;;;;;4.70;3.70;;;;;;;7.84;70.32;98865.66;107236;1261;60365;-36
2023/11/11 02:30:59;;;;;;;4.50;3.50;;;;;;;7.84;70.44;98866.65;107219;1256;73874;-36
2023/11/11 02:33:27;;;;;;;7.10;3.60;;;;;;;7.89;70.35;98870.55;107221;1257;67660;-36
2023/11/11 02:35:56;;;;;;;7.60;3.90;;;;;;;7.90;70.42;98874.50;107232;1262;72717;-36
2023/11/11 02:38:23;;;;;;;6.30;4.20;;;;;;;7.89;70.53;98868.38;107207;1257;60432;-36
2023/11/11 02:40:51;;;;;;;6.50;4.00;;;;;;;7.86;70.58;98866.33;107211;1257;60338;-37
2023/11/11 02:43:19;;;;;;;6.50;4.20;;;;;;;7.85;70.59;98864.45;107213;1257;72601;-37
2023/11/11 02:45:46;;;;;;;5.80;3.80;;;;;;;7.84;70.61;98861.27;107139;1257;67571;-37
2023/11/11 02:48:14;;;;;;;6.40;3.70;;;;;;;7.87;70.59;98856.54;107216;1257;71453;-36
2023/11/11 02:50:43;;;;;;;4.70;3.50;;;;;;;7.93;70.58;98869.31;107220;1257;60323;-36
2023/11/11 02:53:11;;;;;;;7.70;3.70;;;;;;;7.93;70.58;98868.86;107084;1257;60042;-36
2023/11/11 02:55:38;;;;;;;4.70;3.30;;;;;;;7.92;70.64;98864.14;107587;1254;73934;-36
2023/11/11 02:58:06;;;;;;;4.90;3.50;;;;;;;7.92;70.71;98863.27;107460;1258;67770;-36
2023/11/11 03:00:36;;;;;;;6.40;4.10;;;;;;;7.93;70.77;98865.16;107424;1254;70618;-36
2023/11/11 03:03:04;;;;;;;6.90;3.80;;;;;;;7.92;70.77;98858.56;107566;1255;59691;-37
2023/11/11 03:05:33;;;;;;;5.40;3.90;;;;;;;7.95;70.71;98861.80;107493;1254;60271;-36
2023/11/11 03:08:01;;;;;;;4.80;3.70;;;;;;;8.00;70.54;98854.97;107411;1254;72615;-36
2023/11/11 03:10:29;;;;;;;6.00;3.90;;;;;;;8.02;70.68;98850.14;107377;1254;67945;-36
2023/11/11 03:12:58;;;;;;;5.30;3.90;;;;;;;8.01;70.68;98848.90;107322;1255;71359;-36
2023/11/11 03:15:26;;;;;;;5.10;3.80;;;;;;;8.00;70.75;98847.63;107510;1254;60539;-36
2023/11/11 03:17:54;;;;;;;4.60;3.70;;;;;;;7.99;70.81;98844.77;107574;1253;60296;-36
2023/11/11 03:20:21;;;;;;;7.50;3.60;;;;;;;7.98;70.89;98839.20;107452;1254;73870;-37
2023/11/11 03:22:49;;;;;;;5.10;3.40;;;;;;;8.01;70.96;98832.70;107274;1259;67576;-36
2023/11/11 03:25:18;;;;;;;5.70;3.30;;;;;;;8.08;70.88;98830.30;107506;1254;71834;-36
2023/11/11 03:27:46;;;;;;;4.60;3.60;;;;;;;8.10;70.94;98828.39;107407;1254;60396;-37
2023/11/11 03:30:14;;;;;;;7.20;3.60;;;;;;;8.09;71.01;98825.38;107308;1253;60447;-37
2023/11/11 03:32:42;;;;;;;5.60;3.80;;;;;;;8.07;71.19;98818.88;107323;1254;72651;-36
2023/11/11 03:35:09;;;;;;;5.20;3.90;;;;;;;8.06;71.37;98815.98;107413;1254;67577;-36
2023/11/11 03:37:37;;;;;;;6.00;3.80;;;;;;;8.03;71.55;98816.25;107401;1254;72661;-36
2023/11/11 03:40:06;;;;;;;4.40;3.70;;;;;;;8.09;71.71;98812.41;107405;1254;61715;-36
2023/11/11 03:42:34;;;;;;;6.10;4.00;;;;;;;8.13;71.72;98809.11;107430;1254;60495;-36
2023/11/11 03:45:03;;;;;;;5.10;3.70;;;;;;;8.13;71.92;98801.86;107463;1253;72628;-37
2023/11/11 03:47:32;;;;;;;5.20;3.90;;;;;;;8.13;72.14;98802.47;107358;1254;66471;-36
2023/11/11 03:50:01;;;;;;;6.10;3.90;;;;;;;8.14;72.31;98798.85;107513;1258;72731;-36
2023/11/11 03:52:29;;;;;;;6.40;3.90;;;;;;;8.14;72.60;98796.08;107477;1254;61681;-36
2023/11/11 03:54:57;;;;;;;3.70;3.10;;;;;;;8.19;72.62;98789.17;107490;1254;60299;-37
2023/11/11 03:57:25;;;;;;;6.00;3.40;;;;;;;8.26;72.68;98786.69;107444;1254;73890;-37
2023/11/11 03:59:52;;;;;;;5.50;3.80;;;;;;;8.24;72.90;98785.11;107545;1254;67888;-36
2023/11/11 04:02:21;;;;;;;5.40;4.00;;;;;;;8.20;73.35;98787.02;107483;1254;71383;-37
2023/11/11 04:04:49;;;;;;;7.60;3.60;;;;;;;8.16;74.01;98782.18;107448;1254;60425;-37
2023/11/11 04:07:16;;;;;;;4.70;3.60;;;;;;;8.17;74.36;98782.43;107467;1254;60103;-36
2023/11/11 04:09:46;;;;;;;6.20;3.90;;;;;;;8.23;74.79;98776.29;107490;1254;73854;-37
2023/11/11 04:12:14;;;;;;;;;;;;;;;8.23;75.76;98767.33;107502;1254;69025;-37
2023/11/11 04:14:42;;;;;;;6.00;4.40;;;;;;;8.20;76.55;98756.70;107455;1259;70845;-37
2023/11/11 04:17:11;;;;;;;5.00;3.90;;;;;;;8.13;77.34;98750.55;107486;1254;60434;-37
2023/11/11 04:19:39;;;;;;;6.10;4.20;;;;;;;8.11;77.99;98748.61;107503;1254;60323;-36
2023/11/11 04:22:06;;;;;;;6.30;4.50;;;;;;;8.13;78.54;98741.91;107387;1259;73896;-36
2023/11/11 04:24:35;;;;;;;7.10;4.20;;;;;;;8.09;78.95;98734.36;107553;1254;66874;-36
2023/11/11 04:27:03;;;;;;;6.10;4.50;;;;;;;8.02;79.62;98736.62;107380;1254;71400;-36
2023/11/11 04:29:32;;;;;;;5.20;4.30;;;;;;;7.97;80.10;98735.29;107426;1253;61699;-36
2023/11/11 04:32:00;;;;;;;5.30;4.00;;;;;;;7.99;80.21;98731.77;107445;1254;58763;-36
2023/11/11 04:34:28;;;;;;;6.60;4.10;;;;;;;8.00;80.29;98731.98;107427;1254;73848;-36
2023/11/11 04:36:57;;;;;;;7.10;4.40;;;;;;;8.02;80.36;98729.93;107489;1254;67679;-36
2023/11/11 04:39:25;;;;;;;6.70;4.80;;;;;;;7.97;80.51;98728.05;107418;1254;72690;-36
2023/11/11 04:41:54;;;;;;;4.50;4.00;;;;;;;7.93;80.48;98732.60;107438;1254;61813;-36
2023/11/11 04:44:22;;;;;;;4.00;3.10;;;;;;;7.96;80.41;98726.31;107492;1253;60074;-36
2023/11/11 04:46:50;;;;;;;5.50;4.10;;;;;;;7.99;80.15;98727.15;107476;1254;73890;-36
2023/11/11 04:49:18;;;;;;;5.60;4.10;;;;;;;7.98;80.26;98728.23;107495;1255;68263;-36
2023/11/11 04:51:45;;;;;;;6.10;4.50;;;;;;;7.96;80.41;98726.55;107380;1254;72691;-36
2023/11/11 04:54:13;;;;;;;7.40;4.60;;;;;;;7.94;80.45;98725.36;107381;1254;60428;-36
2023/11/11 04:56:42;;;;;;;6.30;4.30;;;;;;;7.96;80.13;98726.41;107527;1254;60409;-36
2023/11/11 04:59:13;;;;;;;7.40;4.20;;;;;;;8.02;79.78;98727.83;107507;1254;74945;-36
2023/11/11 05:01:41;;;;;;;4.70;4.00;;;;;;;8.02;79.49;98726.21;107515;1254;67643;-36
2023/11/11 05:04:11;;;;;;;6.60;4.30;;;;;;;8.00;79.26;98723.39;107494;1254;72661;-36
2023/11/11 05:06:39;;;;;;;6.20;4.20;;;;;;;7.98;79.17;98728.77;107543;1254;60358;-36
2023/11/11 05:09:06;;;;;;;5.90;3.80;;;;;;;7.98;78.92;98723.90;107502;1254;60137;-36
2023/11/11 05:11:34;;;;;;;5.00;4.00;;;;;;;8.05;78.51;98726.20;107487;1253;73846;-36
2023/11/11 05:14:06;;;;;;;6.90;4.30;;;;;;;8.09;78.25;98724.70;107619;1254;66307;-35
2023/11/11 05:16:40;;;;;;;5.80;4.10;;;;;;;8.08;78.00;98723.55;107491;1254;71245;-35
2023/11/11 05:19:08;;;;;;;5.50;4.00;;;;;;;8.05;77.56;98721.27;107510;1259;60364;-36
2023/11/11 05:21:36;;;;;;;7.20;3.90;;;;;;;8.03;77.39;98717.38;107523;1255;60375;-36
2023/11/11 05:24:05;;;;;;;8.50;3.70;;;;;;;8.05;76.99;98720.80;107619;1253;73829;-36
2023/11/11 05:26:33;;;;;;;3.50;3.20;;;;;;;8.12;76.84;98720.45;107582;1254;67564;-36
2023/11/11 05:29:01;;;;;;;4.60;3.80;;;;;;;8.14;76.73;98719.27;107520;1259;72530;-36
2023/11/11 05:31:31;;;;;;;5.70;3.90;;;;;;;8.14;76.60;98715.32;107574;1258;61084;-36
2023/11/11 05:33:59;;;;;;;8.00;3.70;;;;;;;8.14;76.49;98717.23;107554;1259;60399;-36
2023/11/11 05:36:27;;;;;;;5.30;3.40;;;;;;;8.14;76.29;98714.85;107502;1254;73921;-36
2023/11/11 05:38:55;;;;;;;4.40;3.40;;;;;;;8.18;76.15;98708.23;107583;1259;66280;-36
2023/11/11 05:41:23;;;;;;;4.40;3.50;;;;;;;8.24;75.80;98703.53;107495;1254;72728;-36
2023/11/11 05:43:51;;;;;;;5.20;3.40;;;;;;;8.23;75.60;98703.52;107478;1254;60293;-36
2023/11/11 05:46:18;;;;;;;4.30;3.20;;;;;;;8.21;75.48;98699.49;107545;1254;60482;-36
2023/11/11 05:48:46;;;;;;;5.20;3.60;;;;;;;8.19;75.33;98695.43;107526;1254;73804;-36
2023/11/11 05:51:14;;;;;;;4.80;3.50;;;;;;;8.17;75.37;98698.41;106790;1254;1003020;-36
2023/11/11 05:53:42;;;;;;;7.20;3.20;;;;;;;8.21;75.20;98691.92;107486;1254;72754;-36
2023/11/11 05:56:10;;;;;;;4.20;3.30;;;;;;;8.25;75.07;98692.39;107370;1255;60431;-36
2023/11/11 05:58:37;;;;;;;5.20;3.70;;;;;;;8.24;74.91;98692.36;107423;1253;60488;-36
2023/11/11 06:01:05;;;;;;;4.50;3.40;;;;;;;8.24;74.92;98689.34;107412;1254;73927;-36
2023/11/11 06:03:33;;;;;;;4.90;3.40;;;;;;;8.24;74.69;98692.73;107540;1254;66718;-36
2023/11/11 06:06:02;;;;;;;5.50;3.30;;;;;;;8.24;74.78;98689.35;107400;1253;72658;-35
2023/11/11 06:08:30;;;;;;;4.20;3.20;;;;;;;8.29;74.49;98684.13;107449;1254;60382;-36
2023/11/11 06:10:58;;;;;;;4.00;3.20;;;;;;;8.35;74.35;98679.85;107457;1253;60546;-36
2023/11/11 06:13:26;;;;;;;5.40;3.40;;;;;;;8.37;74.28;98680.88;107501;1259;73882;-36
2023/11/11 06:15:54;;;;;;;7.40;3.90;;;;;;;8.36;73.93;98681.10;107516;1254;67580;-36
2023/11/11 06:18:22;;;;;;;4.70;3.40;;;;;;;8.34;73.88;98680.05;107531;1254;72708;-36
2023/11/11 06:20:49;;;;;;;5.10;3.60;;;;;;;8.33;73.85;98681.27;107422;1258;60483;-36
2023/11/11 06:23:17;;;;;;;4.60;3.10;;;;;;;8.33;73.90;98679.11;107372;1259;60414;-36
2023/11/11 06:25:47;;;;;;;4.80;3.30;;;;;;;8.38;73.72;98676.95;107500;1259;72636;-36
2023/11/11 06:28:16;;;;;;;6.90;3.40;;;;;;;8.41;73.43;98674.92;107445;1253;67593;-36
2023/11/11 06:30:44;;;;;;;4.00;3.20;;;;;;;8.41;73.61;98672.31;107483;1253;71450;-36
2023/11/11 06:33:12;;;;;;;4.40;3.50;;;;;;;8.41;73.66;98669.67;107468;1253;60277;-36
2023/11/11 06:35:39;;;;;;;8.30;3.40;;;;;;;8.42;73.57;98667.23;107485;1254;60363;-36
2023/11/11 06:38:07;;;;;;;5.20;3.30;;;;;;;8.40;73.56;98664.58;107485;1254;72696;-35
2023/11/11 06:40:35;;;;;;;5.90;2.80;;;;;;;8.45;73.22;98658.23;107512;1254;66305;-36
2023/11/11 06:43:02;;;;;;;4.40;3.00;;;;;;;8.50;73.01;98655.93;107481;1254;72728;-36
2023/11/11 06:45:32;;;;;;;4.60;3.20;;;;;;;8.51;73.07;98653.71;107511;1254;60419;-36
2023/11/11 06:48:00;;;;;;;4.80;3.20;;;;;;;8.51;73.08;98645.60;107492;1254;60460;-36
2023/11/11 06:50:28;;;;;;;5.50;3.70;;;;;;;8.49;73.09;98644.17;107503;1253;72625;-36
2023/11/11 06:52:56;;;;;;;8.40;3.20;;;;;;;8.48;73.06;98644.15;107480;1254;68012;-36
2023/11/11 06:55:23;;;;;;;5.50;3.20;;;;;;;8.51;72.94;98640.66;107595;1258;73065;-36
2023/11/11 06:57:51;;;;;;;4.50;2.90;;;;;;;8.56;72.96;98644.21;107477;1254;60536;-36
2023/11/11 07:00:20;;;;;;;3.80;3.20;;;;;;;8.57;72.98;98634.11;107532;1259;60421;-36
2023/11/11 07:02:47;;;;;;;5.10;3.30;;;;;;;8.57;73.00;98633.27;107629;1255;72972;-36
2023/11/11 07:05:15;;;;;;;4.50;3.30;;;;;;;8.59;72.88;98630.43;107487;1259;67884;-36
2023/11/11 07:07:43;;;;;;;4.90;3.00;;;;;;;8.59;72.88;98624.50;107645;1258;72675;-36
2023/11/11 07:10:11;;;;;;;4.50;3.10;;;;;;;8.64;72.76;98618.23;107310;1254;60501;-37
2023/11/11 07:12:39;;;;;;;4.30;3.20;;;;;;;8.70;72.61;98615.55;107526;1254;60415;-36
2023/11/11 07:15:10;;;;;;;4.70;3.50;;;;;;;8.70;72.62;98613.79;107471;1254;73855;-37
2023/11/11 07:17:41;;;;;;;5.20;3.70;;;;;;;8.71;72.61;98612.48;107549;1254;66606;-37
2023/11/11 07:20:10;;;;;;;6.90;3.50;;;;;;;8.70;72.61;98609.62;107535;1259;72759;-37
2023/11/11 07:22:38;;;;;;;7.90;4.00;;;;;;;8.69;72.61;98610.98;107485;1259;62431;-36
2023/11/11 07:25:06;;;;;;;5.60;3.80;;;;;;;8.76;72.55;98609.45;107553;1254;60536;-37
2023/11/11 07:27:34;;;;;;;5.20;3.70;;;;;;;8.83;71.93;98604.52;107422;1255;73906;-36
2023/11/11 07:30:04;;;;;;;5.70;3.80;;;;;;;8.83;71.99;98602.59;107598;1257;67551;-36
2023/11/11 07:32:31;;;;;;;;;;;;;;;8.81;72.03;98596.78;107455;1255;73765;-37
2023/11/11 07:35:00;;;;;;;4.60;3.80;;;;;;;8.79;72.55;98588.11;107496;1259;60520;-36
2023/11/11 07:37:28;;;;;;;6.80;4.30;;;;;;;8.79;72.88;98584.63;107500;1253;60348;-37
2023/11/11 07:39:56;;;;;;;7.50;4.20;;;;;;;8.82;72.76;98579.73;107470;1256;72880;-37
2023/11/11 07:42:23;;;;;;;5.10;4.10;;;;;;;8.85;73.15;98575.69;107627;1252;66427;-37
2023/11/11 07:44:53;;;;;;;8.40;4.50;;;;;;;8.84;73.65;98575.50;107387;1256;71364;-37
2023/11/11 07:47:21;;;;;;;6.70;4.70;;;;;;;8.81;73.83;98571.69;107377;1255;60279;-36
2023/11/11 07:49:49;;;;;;;6.30;4.40;;;;;;;8.77;73.90;98559.52;107457;1254;60412;-36
2023/11/11 07:52:17;;;;;;;5.60;4.00;;;;;;;8.75;73.91;98562.49;107529;1254;73861;-37
2023/11/11 07:54:44;;;;;;;7.70;4.20;;;;;;;8.78;73.78;98558.98;107496;1263;66743;-37
2023/11/11 07:57:13;;;;;;;6.30;4.30;;;;;;;8.82;74.07;98555.70;107492;1259;72673;-37
2023/11/11 07:59:43;;;;;;;8.10;5.10;;;;;;;8.81;74.25;98550.29;107533;1254;60727;-37
2023/11/11 08:02:12;;;;;;;7.00;5.10;;;;;;;8.77;74.46;98545.38;107359;1259;60962;-37
2023/11/11 08:04:41;;;;;;;7.10;4.70;;;;;;;8.75;74.81;98544.52;107483;1254;73849;-37
2023/11/11 08:07:11;;;;;;;7.70;4.60;;;;;;;8.78;74.96;98547.23;107579;1255;66756;-37
2023/11/11 08:09:38;;;;;;;8.10;4.50;;;;;;;8.83;74.85;98544.91;107605;1259;71472;-36
2023/11/11 08:12:09;;;;;;;10.20;5.10;;;;;;;8.84;75.06;98541.39;107421;1254;177943;-37
2023/11/11 08:17:20;;;;;;;8.10;5.20;;;;;;;8.83;75.45;98532.86;104225;1292;600717;-36
2023/11/11 08:19:51;;;;;;;7.20;5.30;;;;;;;8.83;75.71;98537.64;106634;1270;61715;-36
2023/11/11 08:22:18;;;;;;;7.40;5.00;;;;;;;8.86;76.05;98534.45;106693;1266;59268;-37
2023/11/11 08:24:46;;;;;;;8.20;5.20;;;;;;;8.84;76.42;98528.31;106675;1267;72269;-36
2023/11/11 08:27:14;;;;;;;8.90;5.70;;;;;;;8.80;76.99;98529.20;106681;1267;67961;-36
2023/11/11 08:29:41;;;;;;;8.40;5.60;;;;;;;8.78;77.53;98525.09;106693;1267;72721;-36
2023/11/11 08:32:09;;;;;;;9.80;5.80;;;;;;;8.82;77.79;98523.50;106606;1266;60792;-37
2023/11/11 08:34:36;;;;;;;10.50;5.80;;;;;;;8.85;77.91;98519.39;106753;1266;59138;-36
2023/11/11 08:37:05;;;;;;;10.40;6.50;;;;;;;8.83;78.41;98517.74;106765;1264;72284;-36
2023/11/11 08:39:33;;;;;;;8.40;5.90;;;;;;;8.80;78.90;98515.92;106793;1263;65913;-36
2023/11/11 08:42:01;;;;;;;7.50;6.30;;;;;;;8.77;79.09;98509.23;106735;1267;71381;-36
2023/11/11 08:44:29;;;;;;;10.20;5.90;;;;;;;8.78;79.27;98510.72;106597;1269;61378;-35
2023/11/11 08:46:57;;;;;;;9.30;6.50;;;;;;;8.81;79.42;98508.59;106649;1263;59867;-36
2023/11/11 08:49:24;;;;;;;8.90;6.80;;;;;;;8.80;79.83;98502.95;106855;1266;73073;-36
2023/11/11 08:51:52;;;;;;;8.80;6.50;;;;;;;8.78;80.15;98494.05;106915;1260;68083;-36
2023/11/11 08:54:20;;;;;;;10.80;7.50;;;;;;;8.75;80.22;98493.70;106938;1260;72706;-36
2023/11/11 08:56:48;;;;;;;9.30;6.50;;;;;;;8.75;80.42;98489.07;106785;1263;60056;-36
2023/11/11 08:59:16;;;;;;;9.90;7.00;;;;;;;8.76;80.54;98482.14;106857;1260;60489;-36
2023/11/11 09:01:44;;;;;;;10.10;7.10;;;;;;;8.71;80.78;98475.66;106854;1260;73375;-35
2023/11/11 09:04:12;;;;;;;10.80;7.80;;;;;;;8.66;81.09;98470.44;106830;1260;67954;-35
2023/11/11 09:06:40;;;;;;;12.40;7.80;;;;;;;8.65;81.42;98466.95;106813;1265;73137;-35
2023/11/11 09:09:07;;;;;;;11.50;8.00;;;;;;;8.72;81.68;98468.10;106793;1260;61694;-35
2023/11/11 09:11:36;;;;;;;13.10;8.80;;;;;;;8.76;81.66;98462.52;106794;1266;59594;-35
2023/11/11 09:14:07;;;;;;;10.60;7.90;;;;;;;8.73;81.92;98454.06;106885;1260;71828;-35
2023/11/11 09:16:38;;;;;;;10.40;8.60;;;;;;;8.71;82.11;98445.95;106883;1263;67702;-36
2023/11/11 09:19:06;;;;;;;13.00;7.40;;;;;;;8.71;82.38;98440.55;106801;1263;70789;-35
2023/11/11 09:21:38;;;;;;;16.10;8.20;;;;;;;8.78;82.29;98430.66;106830;1263;60399;-35
2023/11/11 09:24:08;;;;;;;11.30;7.50;;;;;;;8.83;82.31;98421.52;106905;1263;60111;-35
2023/11/11 09:26:36;;;;;;;10.00;7.50;;;;;;;8.85;82.36;98414.52;106860;1266;73430;-35
2023/11/11 09:29:03;;;;;;;10.60;8.20;;;;;;;8.83;82.41;98401.74;106811;1262;67580;-34
2023/11/11 09:31:32;;;;;;;11.90;7.70;;;;;;;8.79;82.41;98400.55;106798;1263;72933;-35
2023/11/11 09:34:00;;;;;;;9.80;7.10;;;;;;;8.80;82.31;98395.92;106806;1266;61671;-35
2023/11/11 09:36:28;;;;;;;9.90;7.70;;;;;;;8.80;82.38;98383.11;106825;1263;59564;-35
2023/11/11 09:38:56;;;;;;;10.00;7.60;;;;;;;8.76;82.64;98380.06;106750;1261;73063;-35
2023/11/11 09:41:24;;;;;;;10.30;7.70;;;;;;;8.70;82.84;98377.22;106814;1260;67585;-35
2023/11/11 09:43:51;;;;;;;13.20;8.60;;;;;;;8.69;83.12;98369.48;106709;1263;71315;-35
2023/11/11 09:46:21;;;;;;;8.60;7.20;;;;;;;8.74;83.15;98363.90;106778;1262;60484;-35
2023/11/11 09:48:49;;;;;;;;;;;;;;;8.81;83.05;98354.94;106894;1260;60051;-35
2023/11/11 09:51:16;;;;;;;13.70;8.10;;;;;;;8.79;82.98;98347.35;106823;1260;71855;-35
2023/11/11 09:53:44;;;;;;;11.70;8.10;;;;;;;8.74;83.01;98341.83;106774;1263;68042;-35
2023/11/11 09:56:12;;;;;;;10.20;7.70;;;;;;;8.69;83.09;98332.74;106724;1266;71672;-35
2023/11/11 09:58:59;;;;;;;10.90;7.80;;;;;;;8.72;83.10;98328.21;106882;1263;61672;-35
2023/11/11 10:01:27;;;;;;;11.50;8.50;;;;;;;8.73;83.18;98319.58;107454;1254;60033;-35
2023/11/11 10:03:56;;;;;;;10.20;8.50;;;;;;;8.71;83.48;98311.77;107481;1254;71832;-35
2023/11/11 10:06:24;;;;;;;12.90;8.60;;;;;;;8.68;83.70;98308.11;107415;1254;70168;-35
2023/11/11 10:09:00;;;;;;;9.90;8.10;;;;;;;8.65;83.72;98301.75;107344;1254;71426;-35
2023/11/11 10:11:31;;;;;;;11.40;8.00;;;;;;;8.67;83.76;98298.30;107295;1254;60604;-35
2023/11/11 10:13:59;;;;;;;10.60;8.20;;;;;;;8.70;83.79;98293.47;107598;1253;59686;-35
2023/11/11 10:16:37;;;;;;;12.10;8.90;;;;;;;8.70;84.08;98288.98;107534;1254;75266;-35
2023/11/11 10:19:06;;;;;;;12.40;8.10;;;;;;;8.69;84.35;98283.41;107410;1254;67901;-35
2023/11/11 10:21:34;;;;;;;12.30;8.10;;;;;;;8.71;84.39;98283.27;107263;1260;72525;-35
2023/11/11 10:24:02;;;;;;;10.70;7.10;;;;;;;8.79;84.14;98277.70;107450;1253;59723;-35
2023/11/11 10:26:30;;;;;;;12.60;7.70;;;;;;;8.82;84.13;98273.17;107521;1254;61107;-35
2023/11/11 10:28:59;;;;;;;11.70;8.60;;;;;;;8.81;84.20;98270.77;107488;1253;75255;-35
2023/11/11 10:31:26;;;;;;;11.00;7.40;;;;;;;8.77;84.28;98265.73;107484;1254;67616;-35
2023/11/11 10:33:56;;;;;;;13.00;7.70;;;;;;;8.79;84.25;98259.09;107261;1254;71818;-35
2023/11/11 10:36:24;;;;;;;;;;;;;;;8.83;84.15;98251.80;107337;1254;59623;-35
2023/11/11 10:38:55;;;;;;;10.60;7.90;;;;;;;8.85;84.28;98253.45;107459;1254;59473;-34
2023/11/11 10:41:23;;;;;;;10.40;7.80;;;;;;;8.83;84.73;98247.62;107404;1254;73039;-35
2023/11/11 10:43:52;;;;;;;13.70;7.20;;;;;;;8.83;84.83;98245.16;107252;1254;67612;-35
2023/11/11 10:46:20;;;;;;;9.30;6.90;;;;;;;8.88;84.72;98236.70;107430;1254;72686;-35
2023/11/11 10:48:47;;;;;;;8.50;6.80;;;;;;;8.92;84.50;98234.64;107391;1254;60069;-35
2023/11/11 10:51:15;;;;;;;9.30;7.30;;;;;;;8.92;84.67;98229.15;107531;1254;59999;-35
2023/11/11 10:53:43;;;;;;;13.50;9.00;;;;;;;8.88;84.92;98224.81;107406;1254;71844;-35
2023/11/11 10:56:11;;;;;;;22.20;12.40;;;;;;;8.89;85.30;98221.50;107386;1254;67653;-35
2023/11/11 10:58:38;;;;;;;10.50;6.70;;;;;;;8.94;84.87;98221.84;107618;1254;71796;-35
2023/11/11 11:01:06;;;;;;;7.80;6.40;;;;;;;8.96;85.02;98216.90;107307;1253;60291;-35
2023/11/11 11:03:34;;;;;;;9.20;7.00;;;;;;;8.96;85.24;98211.96;107381;1254;60051;-35
2023/11/11 11:06:31;;;;;;;14.60;12.70;;;;;;;8.95;85.37;98203.71;107528;1253;71786;-35
2023/11/11 11:09:14;;;;;;;11.00;8.30;;;;;;;8.96;85.48;98200.62;107538;1254;66486;-36
2023/11/11 11:12:00;;;;;;;9.90;7.90;;;;;;;9.03;85.21;98200.05;107539;1254;73174;-36
2023/11/11 11:14:35;;;;;;;9.70;7.10;;;;;;;9.07;85.27;98193.96;107593;1253;59551;-36
2023/11/11 11:17:08;;;;;;;11.00;9.70;;;;;;;9.04;85.35;98191.86;107500;1254;60037;-36
2023/11/11 11:20:00;;;;;;;9.20;6.00;;;;;;;9.01;85.48;98187.28;107531;1254;73018;-36
2023/11/11 11:22:39;;;;;;;5.50;4.40;;;;;;;9.01;85.46;98183.50;107436;1254;66622;-35
2023/11/11 11:25:36;;;;;;;7.10;4.40;;;;;;;9.08;85.50;98178.14;107500;1254;71405;-36
2023/11/11 11:28:10;;;;;;;7.40;5.00;;;;;;;9.05;85.52;98174.41;107488;1254;60137;-35
2023/11/11 11:30:46;;;;;;;6.50;4.70;;;;;;;9.00;85.71;98171.14;107507;1254;60017;-35
2023/11/11 11:33:19;;;;;;;6.70;4.20;;;;;;;8.94;85.73;98168.10;107599;1254;72841;-35
2023/11/11 11:35:47;;;;;;;6.50;3.80;;;;;;;8.99;85.67;98165.34;107550;1254;67723;-34
2023/11/11 11:38:26;;;;;;;7.80;4.00;;;;;;;9.03;85.52;98160.35;107553;1254;72709;-34
2023/11/11 11:41:26;;;;;;;4.90;4.40;;;;;;;9.02;85.77;98157.71;107503;1257;59605;-35